sensor_id;sensor_type;location;lat;lon;timestamp;P1;durP1;ratioP1;P2;durP2;ratioP2
19260;SDS011;9764;48.114;11.670;2022-09-06T00:00:28;2.67;;;2.40;;
19260;SDS011;9764;48.114;11.670;2022-09-06T00:02:57;6.22;;;2.20;;
19260;SDS011;9764;48.114;11.670;2022-09-06T00:05:25;4.45;;;2.40;;
19260;SDS011;9764;48.114;11.670;2022-09-06T00:07:54;5.47;;;2.70;;
19260;SDS011;9764;48.114;11.670;2022-09-06T00:10:24;3.03;;;2.30;;
19260;SDS011;9764;48.114;11.670;2022-09-06T00:12:53;5.47;;;2.35;;
19260;SDS011;9764;48.114;11.670;2022-09-06T00:15:23;6.10;;;2.10;;
19260;SDS011;9764;48.114;11.670;2022-09-06T00:17:52;3.78;;;2.28;;
19260;SDS011;9764;48.114;11.670;2022-09-06T00:20:20;3.78;;;2.15;;
19260;SDS011;9764;48.114;11.670;2022-09-06T00:22:55;3.63;;;2.03;;
19260;SDS011;9764;48.114;11.670;2022-09-06T00:25:25;2.97;;;2.30;;
19260;SDS011;9764;48.114;11.670;2022-09-06T00:27:54;6.55;;;2.20;;
19260;SDS011;9764;48.114;11.670;2022-09-06T00:30:24;2.78;;;2.22;;
19260;SDS011;9764;48.114;11.670;2022-09-06T00:32:53;3.47;;;2.08;;
19260;SDS011;9764;48.114;11.670;2022-09-06T00:35:23;3.42;;;2.25;;
19260;SDS011;9764;48.114;11.670;2022-09-06T00:37:54;3.22;;;1.90;;
19260;SDS011;9764;48.114;11.670;2022-09-06T00:40:24;2.50;;;1.90;;
19260;SDS011;9764;48.114;11.670;2022-09-06T00:42:53;3.67;;;1.90;;
19260;SDS011;9764;48.114;11.670;2022-09-06T00:45:22;3.40;;;2.10;;
19260;SDS011;9764;48.114;11.670;2022-09-06T00:47:53;2.95;;;2.13;;
19260;SDS011;9764;48.114;11.670;2022-09-06T00:50:21;2.63;;;2.30;;
19260;SDS011;9764;48.114;11.670;2022-09-06T00:52:50;6.07;;;2.25;;
19260;SDS011;9764;48.114;11.670;2022-09-06T00:55:19;3.83;;;2.53;;
19260;SDS011;9764;48.114;11.670;2022-09-06T00:57:49;5.07;;;2.20;;
19260;SDS011;9764;48.114;11.670;2022-09-06T01:00:18;2.20;;;2.00;;
19260;SDS011;9764;48.114;11.670;2022-09-06T01:02:47;7.03;;;2.47;;
19260;SDS011;9764;48.114;11.670;2022-09-06T01:05:17;4.90;;;2.63;;
19260;SDS011;9764;48.114;11.670;2022-09-06T01:07:53;3.00;;;2.03;;
19260;SDS011;9764;48.114;11.670;2022-09-06T01:13:32;2.58;;;2.10;;
19260;SDS011;9764;48.114;11.670;2022-09-06T01:16:10;3.40;;;2.05;;
19260;SDS011;9764;48.114;11.670;2022-09-06T01:18:49;3.83;;;2.15;;
19260;SDS011;9764;48.114;11.670;2022-09-06T01:21:36;2.85;;;1.92;;
19260;SDS011;9764;48.114;11.670;2022-09-06T01:24:14;4.22;;;2.25;;
19260;SDS011;9764;48.114;11.670;2022-09-06T01:30:11;3.17;;;1.85;;
19260;SDS011;9764;48.114;11.670;2022-09-06T01:32:46;3.40;;;2.38;;
19260;SDS011;9764;48.114;11.670;2022-09-06T01:35:20;4.15;;;2.28;;
19260;SDS011;9764;48.114;11.670;2022-09-06T01:37:54;1.92;;;1.60;;
19260;SDS011;9764;48.114;11.670;2022-09-06T01:40:24;3.95;;;2.47;;
19260;SDS011;9764;48.114;11.670;2022-09-06T01:42:55;2.53;;;2.20;;
19260;SDS011;9764;48.114;11.670;2022-09-06T01:45:26;3.70;;;2.08;;
19260;SDS011;9764;48.114;11.670;2022-09-06T01:48:05;6.68;;;2.30;;
19260;SDS011;9764;48.114;11.670;2022-09-06T01:50:53;1.95;;;1.70;;
19260;SDS011;9764;48.114;11.670;2022-09-06T01:53:34;2.92;;;1.98;;
19260;SDS011;9764;48.114;11.670;2022-09-06T01:56:16;3.10;;;2.08;;
19260;SDS011;9764;48.114;11.670;2022-09-06T01:58:56;3.58;;;2.35;;
19260;SDS011;9764;48.114;11.670;2022-09-06T02:01:35;2.95;;;2.10;;
19260;SDS011;9764;48.114;11.670;2022-09-06T02:04:12;2.97;;;2.15;;
19260;SDS011;9764;48.114;11.670;2022-09-06T02:06:49;2.28;;;2.08;;
19260;SDS011;9764;48.114;11.670;2022-09-06T02:09:22;2.25;;;2.00;;
19260;SDS011;9764;48.114;11.670;2022-09-06T02:11:53;2.45;;;2.13;;
19260;SDS011;9764;48.114;11.670;2022-09-06T02:14:27;3.00;;;2.10;;
19260;SDS011;9764;48.114;11.670;2022-09-06T02:16:58;2.15;;;1.95;;
19260;SDS011;9764;48.114;11.670;2022-09-06T02:19:30;3.33;;;2.03;;
19260;SDS011;9764;48.114;11.670;2022-09-06T02:22:02;2.95;;;2.20;;
19260;SDS011;9764;48.114;11.670;2022-09-06T02:24:34;4.45;;;2.15;;
19260;SDS011;9764;48.114;11.670;2022-09-06T02:27:06;3.10;;;2.00;;
19260;SDS011;9764;48.114;11.670;2022-09-06T02:29:36;5.10;;;1.88;;
19260;SDS011;9764;48.114;11.670;2022-09-06T02:32:05;3.55;;;2.08;;
19260;SDS011;9764;48.114;11.670;2022-09-06T02:34:39;3.72;;;2.10;;
19260;SDS011;9764;48.114;11.670;2022-09-06T02:37:09;3.97;;;2.00;;
19260;SDS011;9764;48.114;11.670;2022-09-06T02:39:38;3.38;;;2.17;;
19260;SDS011;9764;48.114;11.670;2022-09-06T02:42:07;3.33;;;1.92;;
19260;SDS011;9764;48.114;11.670;2022-09-06T02:44:38;6.68;;;2.17;;
19260;SDS011;9764;48.114;11.670;2022-09-06T02:47:07;6.95;;;2.30;;
19260;SDS011;9764;48.114;11.670;2022-09-06T02:49:35;2.70;;;2.03;;
19260;SDS011;9764;48.114;11.670;2022-09-06T02:52:04;2.53;;;2.33;;
19260;SDS011;9764;48.114;11.670;2022-09-06T02:54:33;2.72;;;1.80;;
19260;SDS011;9764;48.114;11.670;2022-09-06T02:57:01;2.30;;;2.03;;
19260;SDS011;9764;48.114;11.670;2022-09-06T02:59:29;1.98;;;1.88;;
19260;SDS011;9764;48.114;11.670;2022-09-06T03:01:59;2.58;;;2.00;;
19260;SDS011;9764;48.114;11.670;2022-09-06T03:04:27;3.05;;;1.85;;
19260;SDS011;9764;48.114;11.670;2022-09-06T03:06:56;2.55;;;2.05;;
19260;SDS011;9764;48.114;11.670;2022-09-06T03:09:24;2.47;;;2.28;;
19260;SDS011;9764;48.114;11.670;2022-09-06T03:11:52;3.45;;;2.03;;
19260;SDS011;9764;48.114;11.670;2022-09-06T03:14:21;3.20;;;2.08;;
19260;SDS011;9764;48.114;11.670;2022-09-06T03:16:49;3.72;;;2.10;;
19260;SDS011;9764;48.114;11.670;2022-09-06T03:19:19;2.63;;;1.80;;
19260;SDS011;9764;48.114;11.670;2022-09-06T03:21:47;4.43;;;2.00;;
19260;SDS011;9764;48.114;11.670;2022-09-06T03:24:16;3.00;;;2.03;;
19260;SDS011;9764;48.114;11.670;2022-09-06T03:26:44;2.38;;;2.10;;
19260;SDS011;9764;48.114;11.670;2022-09-06T03:29:12;3.63;;;2.00;;
19260;SDS011;9764;48.114;11.670;2022-09-06T03:31:41;2.95;;;2.10;;
19260;SDS011;9764;48.114;11.670;2022-09-06T03:34:09;4.35;;;2.30;;
19260;SDS011;9764;48.114;11.670;2022-09-06T03:36:39;3.70;;;2.28;;
19260;SDS011;9764;48.114;11.670;2022-09-06T03:39:07;3.75;;;2.22;;
19260;SDS011;9764;48.114;11.670;2022-09-06T03:41:36;3.60;;;2.33;;
19260;SDS011;9764;48.114;11.670;2022-09-06T03:44:04;3.40;;;1.90;;
19260;SDS011;9764;48.114;11.670;2022-09-06T03:46:33;4.32;;;2.47;;
19260;SDS011;9764;48.114;11.670;2022-09-06T03:49:01;3.67;;;2.08;;
19260;SDS011;9764;48.114;11.670;2022-09-06T03:51:29;3.88;;;2.20;;
19260;SDS011;9764;48.114;11.670;2022-09-06T03:53:59;3.03;;;2.03;;
19260;SDS011;9764;48.114;11.670;2022-09-06T03:56:27;5.57;;;2.20;;
19260;SDS011;9764;48.114;11.670;2022-09-06T03:58:55;5.20;;;2.55;;
19260;SDS011;9764;48.114;11.670;2022-09-06T04:01:24;2.88;;;2.30;;
19260;SDS011;9764;48.114;11.670;2022-09-06T04:03:52;2.10;;;1.90;;
19260;SDS011;9764;48.114;11.670;2022-09-06T04:06:21;4.50;;;2.40;;
19260;SDS011;9764;48.114;11.670;2022-09-06T04:08:49;9.13;;;2.60;;
19260;SDS011;9764;48.114;11.670;2022-09-06T04:11:19;7.38;;;2.58;;
19260;SDS011;9764;48.114;11.670;2022-09-06T04:13:48;5.03;;;2.70;;
19260;SDS011;9764;48.114;11.670;2022-09-06T04:16:16;3.30;;;2.15;;
19260;SDS011;9764;48.114;11.670;2022-09-06T04:18:44;3.65;;;2.75;;
19260;SDS011;9764;48.114;11.670;2022-09-06T04:21:13;3.85;;;2.53;;
19260;SDS011;9764;48.114;11.670;2022-09-06T04:23:41;4.15;;;2.63;;
19260;SDS011;9764;48.114;11.670;2022-09-06T04:26:09;2.80;;;2.53;;
19260;SDS011;9764;48.114;11.670;2022-09-06T04:28:40;2.58;;;2.28;;
19260;SDS011;9764;48.114;11.670;2022-09-06T04:31:11;2.47;;;2.28;;
19260;SDS011;9764;48.114;11.670;2022-09-06T04:33:39;5.97;;;2.70;;
19260;SDS011;9764;48.114;11.670;2022-09-06T04:36:08;2.80;;;2.47;;
19260;SDS011;9764;48.114;11.670;2022-09-06T04:38:38;3.55;;;2.50;;
19260;SDS011;9764;48.114;11.670;2022-09-06T04:41:08;2.47;;;2.22;;
19260;SDS011;9764;48.114;11.670;2022-09-06T04:43:37;4.00;;;2.72;;
19260;SDS011;9764;48.114;11.670;2022-09-06T04:46:08;3.92;;;2.50;;
19260;SDS011;9764;48.114;11.670;2022-09-06T04:48:41;4.72;;;2.95;;
19260;SDS011;9764;48.114;11.670;2022-09-06T04:51:09;9.13;;;2.88;;
19260;SDS011;9764;48.114;11.670;2022-09-06T04:53:37;5.70;;;2.60;;
19260;SDS011;9764;48.114;11.670;2022-09-06T04:56:06;4.38;;;2.50;;
19260;SDS011;9764;48.114;11.670;2022-09-06T04:58:36;5.18;;;2.88;;
19260;SDS011;9764;48.114;11.670;2022-09-06T05:01:06;4.80;;;2.58;;
19260;SDS011;9764;48.114;11.670;2022-09-06T05:03:34;5.13;;;2.63;;
19260;SDS011;9764;48.114;11.670;2022-09-06T05:06:06;3.97;;;2.67;;
19260;SDS011;9764;48.114;11.670;2022-09-06T05:08:36;4.95;;;2.50;;
19260;SDS011;9764;48.114;11.670;2022-09-06T05:11:05;6.63;;;2.78;;
19260;SDS011;9764;48.114;11.670;2022-09-06T05:13:34;4.53;;;2.75;;
19260;SDS011;9764;48.114;11.670;2022-09-06T05:16:03;4.85;;;2.70;;
19260;SDS011;9764;48.114;11.670;2022-09-06T05:18:35;3.40;;;2.60;;
19260;SDS011;9764;48.114;11.670;2022-09-06T05:21:04;5.25;;;2.75;;
19260;SDS011;9764;48.114;11.670;2022-09-06T05:23:33;4.72;;;2.67;;
19260;SDS011;9764;48.114;11.670;2022-09-06T05:26:01;3.65;;;2.63;;
19260;SDS011;9764;48.114;11.670;2022-09-06T05:28:30;4.70;;;2.88;;
19260;SDS011;9764;48.114;11.670;2022-09-06T05:31:07;4.05;;;3.13;;
19260;SDS011;9764;48.114;11.670;2022-09-06T05:33:37;5.05;;;2.25;;
19260;SDS011;9764;48.114;11.670;2022-09-06T05:36:06;4.90;;;2.65;;
19260;SDS011;9764;48.114;11.670;2022-09-06T05:38:35;6.60;;;3.00;;
19260;SDS011;9764;48.114;11.670;2022-09-06T05:41:03;5.43;;;2.60;;
19260;SDS011;9764;48.114;11.670;2022-09-06T05:43:31;4.15;;;2.67;;
19260;SDS011;9764;48.114;11.670;2022-09-06T05:46:00;5.25;;;2.97;;
19260;SDS011;9764;48.114;11.670;2022-09-06T05:48:30;7.55;;;2.67;;
19260;SDS011;9764;48.114;11.670;2022-09-06T05:51:03;5.00;;;2.50;;
19260;SDS011;9764;48.114;11.670;2022-09-06T05:53:33;6.63;;;3.25;;
19260;SDS011;9764;48.114;11.670;2022-09-06T05:56:02;5.20;;;2.70;;
19260;SDS011;9764;48.114;11.670;2022-09-06T05:58:31;5.47;;;2.80;;
19260;SDS011;9764;48.114;11.670;2022-09-06T06:01:03;3.45;;;3.00;;
19260;SDS011;9764;48.114;11.670;2022-09-06T06:03:35;4.05;;;2.78;;
19260;SDS011;9764;48.114;11.670;2022-09-06T06:06:04;4.32;;;2.78;;
19260;SDS011;9764;48.114;11.670;2022-09-06T06:08:33;4.68;;;2.83;;
19260;SDS011;9764;48.114;11.670;2022-09-06T06:11:01;4.95;;;2.88;;
19260;SDS011;9764;48.114;11.670;2022-09-06T06:13:30;3.60;;;2.70;;
19260;SDS011;9764;48.114;11.670;2022-09-06T06:16:00;4.15;;;2.42;;
19260;SDS011;9764;48.114;11.670;2022-09-06T06:18:29;4.72;;;3.13;;
19260;SDS011;9764;48.114;11.670;2022-09-06T06:21:12;3.33;;;2.47;;
19260;SDS011;9764;48.114;11.670;2022-09-06T06:23:42;3.80;;;2.50;;
19260;SDS011;9764;48.114;11.670;2022-09-06T06:26:12;6.30;;;3.20;;
19260;SDS011;9764;48.114;11.670;2022-09-06T06:28:41;3.90;;;3.10;;
19260;SDS011;9764;48.114;11.670;2022-09-06T06:31:09;3.13;;;2.83;;
19260;SDS011;9764;48.114;11.670;2022-09-06T06:33:38;4.63;;;3.47;;
19260;SDS011;9764;48.114;11.670;2022-09-06T06:36:17;6.05;;;3.58;;
19260;SDS011;9764;48.114;11.670;2022-09-06T06:38:48;3.85;;;3.33;;
19260;SDS011;9764;48.114;11.670;2022-09-06T06:41:19;4.30;;;3.10;;
19260;SDS011;9764;48.114;11.670;2022-09-06T06:43:50;3.78;;;3.45;;
19260;SDS011;9764;48.114;11.670;2022-09-06T06:46:19;4.25;;;3.25;;
19260;SDS011;9764;48.114;11.670;2022-09-06T06:48:49;5.63;;;3.13;;
19260;SDS011;9764;48.114;11.670;2022-09-06T06:51:22;6.97;;;3.08;;
19260;SDS011;9764;48.114;11.670;2022-09-06T06:53:52;3.50;;;3.20;;
19260;SDS011;9764;48.114;11.670;2022-09-06T06:56:23;4.50;;;3.08;;
19260;SDS011;9764;48.114;11.670;2022-09-06T06:58:53;4.07;;;3.10;;
19260;SDS011;9764;48.114;11.670;2022-09-06T07:01:24;4.60;;;3.40;;
19260;SDS011;9764;48.114;11.670;2022-09-06T07:03:54;8.32;;;4.47;;
19260;SDS011;9764;48.114;11.670;2022-09-06T07:06:25;5.35;;;3.30;;
19260;SDS011;9764;48.114;11.670;2022-09-06T07:09:15;3.50;;;3.20;;
19260;SDS011;9764;48.114;11.670;2022-09-06T07:11:44;5.28;;;3.35;;
19260;SDS011;9764;48.114;11.670;2022-09-06T07:14:15;6.03;;;3.42;;
19260;SDS011;9764;48.114;11.670;2022-09-06T07:16:43;6.72;;;3.10;;
19260;SDS011;9764;48.114;11.670;2022-09-06T07:19:12;4.60;;;3.53;;
19260;SDS011;9764;48.114;11.670;2022-09-06T07:22:02;8.13;;;3.65;;
19260;SDS011;9764;48.114;11.670;2022-09-06T07:24:32;6.82;;;3.40;;
19260;SDS011;9764;48.114;11.670;2022-09-06T07:27:00;5.00;;;3.50;;
19260;SDS011;9764;48.114;11.670;2022-09-06T07:29:49;4.72;;;3.10;;
19260;SDS011;9764;48.114;11.670;2022-09-06T07:32:17;4.45;;;3.10;;
19260;SDS011;9764;48.114;11.670;2022-09-06T07:34:46;4.90;;;3.10;;
19260;SDS011;9764;48.114;11.670;2022-09-06T07:37:15;7.00;;;3.25;;
19260;SDS011;9764;48.114;11.670;2022-09-06T07:39:44;5.18;;;3.15;;
19260;SDS011;9764;48.114;11.670;2022-09-06T07:42:12;3.22;;;2.85;;
19260;SDS011;9764;48.114;11.670;2022-09-06T07:44:41;3.00;;;2.38;;
19260;SDS011;9764;48.114;11.670;2022-09-06T07:47:10;4.20;;;3.25;;
19260;SDS011;9764;48.114;11.670;2022-09-06T07:50:01;4.68;;;3.08;;
19260;SDS011;9764;48.114;11.670;2022-09-06T07:52:51;4.40;;;2.90;;
19260;SDS011;9764;48.114;11.670;2022-09-06T07:55:40;2.95;;;2.67;;
19260;SDS011;9764;48.114;11.670;2022-09-06T07:58:09;3.17;;;2.58;;
19260;SDS011;9764;48.114;11.670;2022-09-06T08:00:37;7.38;;;2.85;;
19260;SDS011;9764;48.114;11.670;2022-09-06T08:03:07;7.70;;;3.10;;
19260;SDS011;9764;48.114;11.670;2022-09-06T08:05:36;3.20;;;2.67;;
19260;SDS011;9764;48.114;11.670;2022-09-06T08:08:26;5.35;;;3.17;;
19260;SDS011;9764;48.114;11.670;2022-09-06T08:11:14;5.60;;;2.90;;
19260;SDS011;9764;48.114;11.670;2022-09-06T08:13:43;7.70;;;3.35;;
19260;SDS011;9764;48.114;11.670;2022-09-06T08:16:15;3.08;;;2.70;;
19260;SDS011;9764;48.114;11.670;2022-09-06T08:18:48;3.53;;;3.03;;
19260;SDS011;9764;48.114;11.670;2022-09-06T08:21:19;7.13;;;3.42;;
19260;SDS011;9764;48.114;11.670;2022-09-06T08:23:51;4.22;;;3.35;;
19260;SDS011;9764;48.114;11.670;2022-09-06T08:26:21;4.50;;;3.00;;
19260;SDS011;9764;48.114;11.670;2022-09-06T08:28:53;4.85;;;3.50;;
19260;SDS011;9764;48.114;11.670;2022-09-06T08:31:24;4.68;;;3.50;;
19260;SDS011;9764;48.114;11.670;2022-09-06T08:33:54;4.77;;;3.40;;
19260;SDS011;9764;48.114;11.670;2022-09-06T08:36:23;4.40;;;3.20;;
19260;SDS011;9764;48.114;11.670;2022-09-06T08:38:56;5.57;;;3.45;;
19260;SDS011;9764;48.114;11.670;2022-09-06T08:41:26;3.30;;;2.85;;
19260;SDS011;9764;48.114;11.670;2022-09-06T08:43:59;5.43;;;3.40;;
19260;SDS011;9764;48.114;11.670;2022-09-06T08:46:52;6.30;;;3.50;;
19260;SDS011;9764;48.114;11.670;2022-09-06T08:49:25;6.43;;;3.95;;
19260;SDS011;9764;48.114;11.670;2022-09-06T08:58:03;8.07;;;3.30;;
19260;SDS011;9764;48.114;11.670;2022-09-06T09:00:40;4.32;;;3.65;;
19260;SDS011;9764;48.114;11.670;2022-09-06T09:03:15;4.43;;;3.83;;
19260;SDS011;9764;48.114;11.670;2022-09-06T09:05:47;6.88;;;3.67;;
19260;SDS011;9764;48.114;11.670;2022-09-06T09:08:20;3.60;;;3.30;;
19260;SDS011;9764;48.114;11.670;2022-09-06T09:10:56;5.43;;;3.30;;
19260;SDS011;9764;48.114;11.670;2022-09-06T09:13:29;4.65;;;3.75;;
19260;SDS011;9764;48.114;11.670;2022-09-06T09:16:04;5.20;;;3.80;;
19260;SDS011;9764;48.114;11.670;2022-09-06T09:18:34;4.38;;;3.22;;
19260;SDS011;9764;48.114;11.670;2022-09-06T09:21:05;5.07;;;3.17;;
19260;SDS011;9764;48.114;11.670;2022-09-06T09:23:35;4.28;;;3.08;;
19260;SDS011;9764;48.114;11.670;2022-09-06T09:26:06;3.10;;;2.85;;
19260;SDS011;9764;48.114;11.670;2022-09-06T09:28:45;22.65;;;14.05;;
19260;SDS011;9764;48.114;11.670;2022-09-06T09:31:32;15.85;;;10.45;;
19260;SDS011;9764;48.114;11.670;2022-09-06T09:34:03;20.30;;;12.80;;
19260;SDS011;9764;48.114;11.670;2022-09-06T09:36:32;17.05;;;11.98;;
19260;SDS011;9764;48.114;11.670;2022-09-06T09:39:00;13.85;;;8.60;;
19260;SDS011;9764;48.114;11.670;2022-09-06T09:41:37;13.20;;;7.85;;
19260;SDS011;9764;48.114;11.670;2022-09-06T09:44:09;12.52;;;7.68;;
19260;SDS011;9764;48.114;11.670;2022-09-06T09:46:43;10.48;;;6.97;;
19260;SDS011;9764;48.114;11.670;2022-09-06T09:49:12;8.40;;;6.10;;
19260;SDS011;9764;48.114;11.670;2022-09-06T09:52:03;9.15;;;5.55;;
19260;SDS011;9764;48.114;11.670;2022-09-06T09:54:34;7.65;;;4.93;;
19260;SDS011;9764;48.114;11.670;2022-09-06T09:57:07;7.45;;;4.93;;
19260;SDS011;9764;48.114;11.670;2022-09-06T09:59:39;8.10;;;4.80;;
19260;SDS011;9764;48.114;11.670;2022-09-06T10:02:15;6.40;;;4.43;;
19260;SDS011;9764;48.114;11.670;2022-09-06T10:04:48;8.52;;;4.57;;
19260;SDS011;9764;48.114;11.670;2022-09-06T10:07:20;8.40;;;3.58;;
19260;SDS011;9764;48.114;11.670;2022-09-06T10:09:55;6.35;;;3.78;;
19260;SDS011;9764;48.114;11.670;2022-09-06T10:12:30;6.90;;;3.92;;
19260;SDS011;9764;48.114;11.670;2022-09-06T10:15:00;8.60;;;3.85;;
19260;SDS011;9764;48.114;11.670;2022-09-06T10:17:33;5.55;;;3.28;;
19260;SDS011;9764;48.114;11.670;2022-09-06T10:20:04;5.53;;;3.58;;
19260;SDS011;9764;48.114;11.670;2022-09-06T10:22:39;6.07;;;3.55;;
19260;SDS011;9764;48.114;11.670;2022-09-06T10:25:29;5.97;;;3.05;;
19260;SDS011;9764;48.114;11.670;2022-09-06T10:28:15;5.90;;;3.00;;
19260;SDS011;9764;48.114;11.670;2022-09-06T10:31:00;7.38;;;3.30;;
19260;SDS011;9764;48.114;11.670;2022-09-06T10:33:36;6.57;;;3.17;;
19260;SDS011;9764;48.114;11.670;2022-09-06T10:36:14;5.35;;;2.60;;
19260;SDS011;9764;48.114;11.670;2022-09-06T10:38:47;5.72;;;3.00;;
19260;SDS011;9764;48.114;11.670;2022-09-06T10:41:30;7.22;;;3.40;;
19260;SDS011;9764;48.114;11.670;2022-09-06T10:44:14;3.03;;;2.65;;
19260;SDS011;9764;48.114;11.670;2022-09-06T10:46:54;5.63;;;2.78;;
19260;SDS011;9764;48.114;11.670;2022-09-06T10:49:28;4.55;;;3.00;;
19260;SDS011;9764;48.114;11.670;2022-09-06T10:51:59;4.50;;;2.70;;
19260;SDS011;9764;48.114;11.670;2022-09-06T10:54:31;4.07;;;2.72;;
19260;SDS011;9764;48.114;11.670;2022-09-06T10:57:02;10.13;;;3.10;;
19260;SDS011;9764;48.114;11.670;2022-09-06T10:59:58;5.78;;;2.90;;
19260;SDS011;9764;48.114;11.670;2022-09-06T11:02:34;3.63;;;2.40;;
19260;SDS011;9764;48.114;11.670;2022-09-06T11:05:09;6.75;;;3.03;;
19260;SDS011;9764;48.114;11.670;2022-09-06T11:07:59;5.38;;;3.40;;
19260;SDS011;9764;48.114;11.670;2022-09-06T11:10:50;4.40;;;2.78;;
19260;SDS011;9764;48.114;11.670;2022-09-06T11:13:21;3.92;;;2.50;;
19260;SDS011;9764;48.114;11.670;2022-09-06T11:15:56;6.95;;;2.85;;
19260;SDS011;9764;48.114;11.670;2022-09-06T11:18:31;4.82;;;2.75;;
19260;SDS011;9764;48.114;11.670;2022-09-06T11:21:10;3.70;;;2.72;;
19260;SDS011;9764;48.114;11.670;2022-09-06T11:23:50;5.72;;;2.97;;
19260;SDS011;9764;48.114;11.670;2022-09-06T11:26:30;7.22;;;2.47;;
19260;SDS011;9764;48.114;11.670;2022-09-06T11:29:02;7.57;;;2.70;;
19260;SDS011;9764;48.114;11.670;2022-09-06T11:31:47;5.13;;;2.90;;
19260;SDS011;9764;48.114;11.670;2022-09-06T11:34:38;5.40;;;2.63;;
19260;SDS011;9764;48.114;11.670;2022-09-06T11:37:19;7.28;;;3.15;;
19260;SDS011;9764;48.114;11.670;2022-09-06T11:40:02;4.57;;;2.58;;
19260;SDS011;9764;48.114;11.670;2022-09-06T11:43:07;5.53;;;2.80;;
19260;SDS011;9764;48.114;11.670;2022-09-06T11:46:05;4.22;;;2.75;;
19260;SDS011;9764;48.114;11.670;2022-09-06T11:48:59;6.22;;;2.53;;
19260;SDS011;9764;48.114;11.670;2022-09-06T11:51:33;6.50;;;2.80;;
19260;SDS011;9764;48.114;11.670;2022-09-06T11:56:52;3.88;;;2.55;;
19260;SDS011;9764;48.114;11.670;2022-09-06T11:59:35;3.80;;;2.67;;
19260;SDS011;9764;48.114;11.670;2022-09-06T12:05:17;3.97;;;2.78;;
19260;SDS011;9764;48.114;11.670;2022-09-06T12:11:01;6.28;;;3.08;;
19260;SDS011;9764;48.114;11.670;2022-09-06T12:13:38;5.68;;;2.53;;
19260;SDS011;9764;48.114;11.670;2022-09-06T12:16:09;4.05;;;2.35;;
19260;SDS011;9764;48.114;11.670;2022-09-06T12:18:55;6.22;;;2.50;;
19260;SDS011;9764;48.114;11.670;2022-09-06T12:21:43;7.38;;;2.60;;
19260;SDS011;9764;48.114;11.670;2022-09-06T12:27:19;5.22;;;2.60;;
19260;SDS011;9764;48.114;11.670;2022-09-06T12:29:49;4.05;;;2.53;;
19260;SDS011;9764;48.114;11.670;2022-09-06T12:32:23;5.07;;;2.40;;
19260;SDS011;9764;48.114;11.670;2022-09-06T12:34:54;5.05;;;2.35;;
19260;SDS011;9764;48.114;11.670;2022-09-06T12:37:50;6.43;;;2.60;;
19260;SDS011;9764;48.114;11.670;2022-09-06T12:40:22;4.28;;;2.28;;
19260;SDS011;9764;48.114;11.670;2022-09-06T12:42:52;3.83;;;2.00;;
19260;SDS011;9764;48.114;11.670;2022-09-06T12:45:21;4.80;;;2.60;;
19260;SDS011;9764;48.114;11.670;2022-09-06T12:48:03;7.68;;;2.55;;
19260;SDS011;9764;48.114;11.670;2022-09-06T12:50:36;5.57;;;2.33;;
19260;SDS011;9764;48.114;11.670;2022-09-06T12:53:17;6.32;;;2.58;;
19260;SDS011;9764;48.114;11.670;2022-09-06T12:56:00;4.07;;;2.35;;
19260;SDS011;9764;48.114;11.670;2022-09-06T12:58:32;6.90;;;2.75;;
19260;SDS011;9764;48.114;11.670;2022-09-06T13:01:03;8.38;;;2.95;;
19260;SDS011;9764;48.114;11.670;2022-09-06T13:03:37;9.15;;;2.45;;
19260;SDS011;9764;48.114;11.670;2022-09-06T13:06:08;6.75;;;2.58;;
19260;SDS011;9764;48.114;11.670;2022-09-06T13:08:49;4.18;;;2.20;;
19260;SDS011;9764;48.114;11.670;2022-09-06T13:11:21;8.02;;;2.50;;
19260;SDS011;9764;48.114;11.670;2022-09-06T13:13:54;5.43;;;2.63;;
19260;SDS011;9764;48.114;11.670;2022-09-06T13:16:25;5.57;;;1.75;;
19260;SDS011;9764;48.114;11.670;2022-09-06T13:19:09;4.63;;;2.60;;
19260;SDS011;9764;48.114;11.670;2022-09-06T13:21:43;3.88;;;2.08;;
19260;SDS011;9764;48.114;11.670;2022-09-06T13:24:20;4.57;;;1.98;;
19260;SDS011;9764;48.114;11.670;2022-09-06T13:26:51;6.00;;;2.42;;
19260;SDS011;9764;48.114;11.670;2022-09-06T13:29:21;3.80;;;2.10;;
19260;SDS011;9764;48.114;11.670;2022-09-06T13:31:51;5.95;;;2.10;;
19260;SDS011;9764;48.114;11.670;2022-09-06T13:34:21;3.72;;;1.95;;
19260;SDS011;9764;48.114;11.670;2022-09-06T13:36:51;4.55;;;2.30;;
19260;SDS011;9764;48.114;11.670;2022-09-06T13:39:29;6.05;;;2.53;;
19260;SDS011;9764;48.114;11.670;2022-09-06T13:41:59;3.60;;;2.17;;
19260;SDS011;9764;48.114;11.670;2022-09-06T13:44:29;5.95;;;2.20;;
19260;SDS011;9764;48.114;11.670;2022-09-06T13:46:59;4.40;;;2.15;;
19260;SDS011;9764;48.114;11.670;2022-09-06T13:49:27;4.10;;;2.25;;
19260;SDS011;9764;48.114;11.670;2022-09-06T13:52:00;6.55;;;2.38;;
19260;SDS011;9764;48.114;11.670;2022-09-06T13:54:31;4.47;;;2.25;;
19260;SDS011;9764;48.114;11.670;2022-09-06T13:56:59;4.78;;;1.88;;
19260;SDS011;9764;48.114;11.670;2022-09-06T13:59:28;6.20;;;2.38;;
19260;SDS011;9764;48.114;11.670;2022-09-06T14:01:58;4.80;;;2.40;;
19260;SDS011;9764;48.114;11.670;2022-09-06T14:04:28;6.05;;;2.45;;
19260;SDS011;9764;48.114;11.670;2022-09-06T14:06:57;5.65;;;2.25;;
19260;SDS011;9764;48.114;11.670;2022-09-06T14:09:26;4.47;;;2.22;;
19260;SDS011;9764;48.114;11.670;2022-09-06T14:11:56;5.03;;;2.30;;
19260;SDS011;9764;48.114;11.670;2022-09-06T14:14:24;3.72;;;2.20;;
19260;SDS011;9764;48.114;11.670;2022-09-06T14:16:53;7.22;;;2.30;;
19260;SDS011;9764;48.114;11.670;2022-09-06T14:19:22;6.53;;;2.33;;
19260;SDS011;9764;48.114;11.670;2022-09-06T14:21:51;5.53;;;2.22;;
19260;SDS011;9764;48.114;11.670;2022-09-06T14:24:19;5.65;;;2.13;;
19260;SDS011;9764;48.114;11.670;2022-09-06T14:26:47;3.67;;;2.30;;
19260;SDS011;9764;48.114;11.670;2022-09-06T14:29:17;19.65;;;3.28;;
19260;SDS011;9764;48.114;11.670;2022-09-06T14:31:46;9.07;;;2.58;;
19260;SDS011;9764;48.114;11.670;2022-09-06T14:34:14;9.70;;;2.10;;
19260;SDS011;9764;48.114;11.670;2022-09-06T14:36:43;5.90;;;1.90;;
19260;SDS011;9764;48.114;11.670;2022-09-06T14:39:11;8.73;;;2.20;;
19260;SDS011;9764;48.114;11.670;2022-09-06T14:41:39;4.57;;;2.10;;
19260;SDS011;9764;48.114;11.670;2022-09-06T14:44:08;8.30;;;2.70;;
19260;SDS011;9764;48.114;11.670;2022-09-06T14:46:39;7.45;;;2.08;;
19260;SDS011;9764;48.114;11.670;2022-09-06T14:49:08;4.63;;;2.08;;
19260;SDS011;9764;48.114;11.670;2022-09-06T14:51:36;5.90;;;1.92;;
19260;SDS011;9764;48.114;11.670;2022-09-06T14:54:06;5.65;;;2.22;;
19260;SDS011;9764;48.114;11.670;2022-09-06T14:56:36;4.35;;;1.70;;
19260;SDS011;9764;48.114;11.670;2022-09-06T14:59:06;3.58;;;2.10;;
19260;SDS011;9764;48.114;11.670;2022-09-06T15:01:35;6.32;;;1.73;;
19260;SDS011;9764;48.114;11.670;2022-09-06T15:04:06;10.25;;;2.00;;
19260;SDS011;9764;48.114;11.670;2022-09-06T15:06:36;5.90;;;2.17;;
19260;SDS011;9764;48.114;11.670;2022-09-06T15:09:06;8.95;;;1.80;;
19260;SDS011;9764;48.114;11.670;2022-09-06T15:11:37;7.80;;;1.80;;
19260;SDS011;9764;48.114;11.670;2022-09-06T15:14:10;6.88;;;2.05;;
19260;SDS011;9764;48.114;11.670;2022-09-06T15:16:40;2.55;;;1.50;;
19260;SDS011;9764;48.114;11.670;2022-09-06T15:19:11;5.28;;;1.85;;
19260;SDS011;9764;48.114;11.670;2022-09-06T15:21:39;3.40;;;1.80;;
19260;SDS011;9764;48.114;11.670;2022-09-06T15:24:08;2.95;;;1.67;;
19260;SDS011;9764;48.114;11.670;2022-09-06T15:26:38;6.30;;;1.50;;
19260;SDS011;9764;48.114;11.670;2022-09-06T15:29:06;2.17;;;1.42;;
19260;SDS011;9764;48.114;11.670;2022-09-06T15:31:35;1.52;;;1.20;;
19260;SDS011;9764;48.114;11.670;2022-09-06T15:34:04;3.63;;;1.70;;
19260;SDS011;9764;48.114;11.670;2022-09-06T15:36:35;1.88;;;1.00;;
19260;SDS011;9764;48.114;11.670;2022-09-06T15:39:04;1.70;;;1.13;;
19260;SDS011;9764;48.114;11.670;2022-09-06T15:41:33;5.30;;;1.30;;
19260;SDS011;9764;48.114;11.670;2022-09-06T15:44:04;1.50;;;1.17;;